sensor_id;sensor_type;location;lat;lon;timestamp;P1;durP1;ratioP1;P2;durP2;ratioP2
769;SDS011;368;48.698;9.116;2023-04-03T00:00:58;4.90;;;4.40;;
769;SDS011;368;48.698;9.116;2023-04-03T00:03:25;5.20;;;4.67;;
769;SDS011;368;48.698;9.116;2023-04-03T00:05:53;6.87;;;4.77;;
769;SDS011;368;48.698;9.116;2023-04-03T00:08:20;6.37;;;5.20;;
769;SDS011;368;48.698;9.116;2023-04-03T00:10:47;5.53;;;4.47;;
769;SDS011;368;48.698;9.116;2023-04-03T00:13:14;4.63;;;4.23;;
769;SDS011;368;48.698;9.116;2023-04-03T00:15:41;5.57;;;5.07;;
769;SDS011;368;48.698;9.116;2023-04-03T00:18:09;7.93;;;5.60;;
769;SDS011;368;48.698;9.116;2023-04-03T00:20:36;5.33;;;4.47;;
769;SDS011;368;48.698;9.116;2023-04-03T00:23:04;5.37;;;4.40;;
769;SDS011;368;48.698;9.116;2023-04-03T00:25:31;4.97;;;4.57;;
769;SDS011;368;48.698;9.116;2023-04-03T00:27:58;4.90;;;4.50;;
769;SDS011;368;48.698;9.116;2023-04-03T00:30:25;5.97;;;5.47;;
769;SDS011;368;48.698;9.116;2023-04-03T00:32:52;4.67;;;4.17;;
769;SDS011;368;48.698;9.116;2023-04-03T00:35:20;4.77;;;4.20;;
769;SDS011;368;48.698;9.116;2023-04-03T00:37:50;5.03;;;4.63;;
769;SDS011;368;48.698;9.116;2023-04-03T00:40:19;4.80;;;4.40;;
769;SDS011;368;48.698;9.116;2023-04-03T00:42:48;5.87;;;5.30;;
769;SDS011;368;48.698;9.116;2023-04-03T00:45:25;4.77;;;4.37;;
769;SDS011;368;48.698;9.116;2023-04-03T00:47:55;4.80;;;4.40;;
769;SDS011;368;48.698;9.116;2023-04-03T00:50:24;4.57;;;4.27;;
769;SDS011;368;48.698;9.116;2023-04-03T00:52:51;5.83;;;5.33;;
769;SDS011;368;48.698;9.116;2023-04-03T00:55:20;5.50;;;4.33;;
769;SDS011;368;48.698;9.116;2023-04-03T00:57:48;7.23;;;4.63;;
769;SDS011;368;48.698;9.116;2023-04-03T01:00:17;5.10;;;4.70;;
769;SDS011;368;48.698;9.116;2023-04-03T01:02:47;4.63;;;4.23;;
769;SDS011;368;48.698;9.116;2023-04-03T01:05:14;5.60;;;5.10;;
769;SDS011;368;48.698;9.116;2023-04-03T01:07:42;4.70;;;4.30;;
769;SDS011;368;48.698;9.116;2023-04-03T01:10:11;5.30;;;4.90;;
769;SDS011;368;48.698;9.116;2023-04-03T01:12:42;5.63;;;4.27;;
769;SDS011;368;48.698;9.116;2023-04-03T01:15:12;5.50;;;5.00;;
769;SDS011;368;48.698;9.116;2023-04-03T01:17:41;7.40;;;5.00;;
769;SDS011;368;48.698;9.116;2023-04-03T01:23:25;5.13;;;4.20;;
769;SDS011;368;48.698;9.116;2023-04-03T01:26:00;5.50;;;4.93;;
769;SDS011;368;48.698;9.116;2023-04-03T01:28:30;5.43;;;4.83;;
769;SDS011;368;48.698;9.116;2023-04-03T01:31:00;6.10;;;5.00;;
769;SDS011;368;48.698;9.116;2023-04-03T01:33:33;5.63;;;4.43;;
769;SDS011;368;48.698;9.116;2023-04-03T01:36:00;6.33;;;4.90;;
769;SDS011;368;48.698;9.116;2023-04-03T01:38:27;5.00;;;4.60;;
769;SDS011;368;48.698;9.116;2023-04-03T01:40:54;4.87;;;4.37;;
769;SDS011;368;48.698;9.116;2023-04-03T01:43:21;5.00;;;4.50;;
769;SDS011;368;48.698;9.116;2023-04-03T01:45:48;5.97;;;4.47;;
769;SDS011;368;48.698;9.116;2023-04-03T01:48:15;4.77;;;4.27;;
769;SDS011;368;48.698;9.116;2023-04-03T01:50:43;5.13;;;4.07;;
769;SDS011;368;48.698;9.116;2023-04-03T01:53:10;6.03;;;5.03;;
769;SDS011;368;48.698;9.116;2023-04-03T01:55:39;5.40;;;4.90;;
769;SDS011;368;48.698;9.116;2023-04-03T01:58:06;4.60;;;4.10;;
769;SDS011;368;48.698;9.116;2023-04-03T02:00:32;5.17;;;4.67;;
769;SDS011;368;48.698;9.116;2023-04-03T02:02:59;6.10;;;4.60;;
769;SDS011;368;48.698;9.116;2023-04-03T02:05:26;5.97;;;4.23;;
769;SDS011;368;48.698;9.116;2023-04-03T02:07:54;4.93;;;4.53;;
769;SDS011;368;48.698;9.116;2023-04-03T02:10:21;5.00;;;4.50;;
769;SDS011;368;48.698;9.116;2023-04-03T02:12:48;5.00;;;4.60;;
769;SDS011;368;48.698;9.116;2023-04-03T02:15:15;5.73;;;4.90;;
769;SDS011;368;48.698;9.116;2023-04-03T02:17:42;5.30;;;4.80;;
769;SDS011;368;48.698;9.116;2023-04-03T02:20:10;5.17;;;4.30;;
769;SDS011;368;48.698;9.116;2023-04-03T02:22:37;5.33;;;4.83;;
769;SDS011;368;48.698;9.116;2023-04-03T02:25:05;5.00;;;4.50;;
769;SDS011;368;48.698;9.116;2023-04-03T02:27:33;4.43;;;4.13;;
769;SDS011;368;48.698;9.116;2023-04-03T02:30:00;5.87;;;5.00;;
769;SDS011;368;48.698;9.116;2023-04-03T02:32:27;8.00;;;4.33;;
769;SDS011;368;48.698;9.116;2023-04-03T02:34:53;5.30;;;4.80;;
769;SDS011;368;48.698;9.116;2023-04-03T02:37:21;4.97;;;4.53;;
769;SDS011;368;48.698;9.116;2023-04-03T02:39:48;5.03;;;4.63;;
769;SDS011;368;48.698;9.116;2023-04-03T02:42:16;6.90;;;4.73;;
769;SDS011;368;48.698;9.116;2023-04-03T02:44:43;4.20;;;3.90;;
769;SDS011;368;48.698;9.116;2023-04-03T02:47:10;4.93;;;4.53;;
769;SDS011;368;48.698;9.116;2023-04-03T02:49:37;4.83;;;4.43;;
769;SDS011;368;48.698;9.116;2023-04-03T02:52:04;5.07;;;4.50;;
769;SDS011;368;48.698;9.116;2023-04-03T02:54:30;5.00;;;4.50;;
769;SDS011;368;48.698;9.116;2023-04-03T02:56:57;5.47;;;4.93;;
769;SDS011;368;48.698;9.116;2023-04-03T02:59:26;4.50;;;4.10;;
769;SDS011;368;48.698;9.116;2023-04-03T03:01:52;5.50;;;4.30;;
769;SDS011;368;48.698;9.116;2023-04-03T03:04:20;4.60;;;4.20;;
769;SDS011;368;48.698;9.116;2023-04-03T03:06:47;7.83;;;4.83;;
769;SDS011;368;48.698;9.116;2023-04-03T03:09:14;5.90;;;4.60;;
769;SDS011;368;48.698;9.116;2023-04-03T03:11:41;5.83;;;4.40;;
769;SDS011;368;48.698;9.116;2023-04-03T03:14:08;5.00;;;4.60;;
769;SDS011;368;48.698;9.116;2023-04-03T03:16:36;4.40;;;4.10;;
769;SDS011;368;48.698;9.116;2023-04-03T03:19:03;4.53;;;4.13;;
769;SDS011;368;48.698;9.116;2023-04-03T03:21:31;4.80;;;4.40;;
769;SDS011;368;48.698;9.116;2023-04-03T03:23:58;4.50;;;4.10;;
769;SDS011;368;48.698;9.116;2023-04-03T03:26:25;5.10;;;4.40;;
769;SDS011;368;48.698;9.116;2023-04-03T03:28:52;5.03;;;4.20;;
769;SDS011;368;48.698;9.116;2023-04-03T03:31:18;4.27;;;3.90;;
769;SDS011;368;48.698;9.116;2023-04-03T03:33:47;5.70;;;5.00;;
769;SDS011;368;48.698;9.116;2023-04-03T03:36:13;6.60;;;4.53;;
769;SDS011;368;48.698;9.116;2023-04-03T03:38:40;4.23;;;3.83;;
769;SDS011;368;48.698;9.116;2023-04-03T03:41:07;4.77;;;4.17;;
769;SDS011;368;48.698;9.116;2023-04-03T03:43:34;4.10;;;3.70;;
769;SDS011;368;48.698;9.116;2023-04-03T03:46:01;4.50;;;4.10;;
769;SDS011;368;48.698;9.116;2023-04-03T03:48:28;5.13;;;4.07;;
769;SDS011;368;48.698;9.116;2023-04-03T03:50:56;4.90;;;4.33;;
769;SDS011;368;48.698;9.116;2023-04-03T03:53:23;5.50;;;3.80;;
769;SDS011;368;48.698;9.116;2023-04-03T03:55:50;5.17;;;3.60;;
769;SDS011;368;48.698;9.116;2023-04-03T03:58:17;4.40;;;4.10;;
769;SDS011;368;48.698;9.116;2023-04-03T04:00:44;4.53;;;4.13;;
769;SDS011;368;48.698;9.116;2023-04-03T04:03:11;4.30;;;3.90;;
769;SDS011;368;48.698;9.116;2023-04-03T04:05:37;4.30;;;4.00;;
769;SDS011;368;48.698;9.116;2023-04-03T04:08:06;4.47;;;3.83;;
769;SDS011;368;48.698;9.116;2023-04-03T04:10:32;6.43;;;4.70;;
769;SDS011;368;48.698;9.116;2023-04-03T04:13:00;4.10;;;3.67;;
769;SDS011;368;48.698;9.116;2023-04-03T04:15:26;3.90;;;3.60;;
769;SDS011;368;48.698;9.116;2023-04-03T04:17:54;4.53;;;4.07;;
769;SDS011;368;48.698;9.116;2023-04-03T04:20:22;5.33;;;3.90;;
769;SDS011;368;48.698;9.116;2023-04-03T04:22:49;4.80;;;4.40;;
769;SDS011;368;48.698;9.116;2023-04-03T04:25:17;4.37;;;3.70;;
769;SDS011;368;48.698;9.116;2023-04-03T04:27:43;5.37;;;4.40;;
769;SDS011;368;48.698;9.116;2023-04-03T04:30:11;6.00;;;4.70;;
769;SDS011;368;48.698;9.116;2023-04-03T04:32:38;7.50;;;4.67;;
769;SDS011;368;48.698;9.116;2023-04-03T04:35:05;4.70;;;4.20;;
769;SDS011;368;48.698;9.116;2023-04-03T04:37:33;4.80;;;4.40;;
769;SDS011;368;48.698;9.116;2023-04-03T04:40:00;5.60;;;4.33;;
769;SDS011;368;48.698;9.116;2023-04-03T04:42:28;5.07;;;4.43;;
769;SDS011;368;48.698;9.116;2023-04-03T04:44:55;4.73;;;4.33;;
769;SDS011;368;48.698;9.116;2023-04-03T04:47:22;4.23;;;3.90;;
769;SDS011;368;48.698;9.116;2023-04-03T04:49:49;5.50;;;4.10;;
769;SDS011;368;48.698;9.116;2023-04-03T04:52:15;4.47;;;4.00;;
769;SDS011;368;48.698;9.116;2023-04-03T04:54:42;6.47;;;4.63;;
769;SDS011;368;48.698;9.116;2023-04-03T04:57:09;3.67;;;3.37;;
769;SDS011;368;48.698;9.116;2023-04-03T04:59:37;3.50;;;3.23;;
769;SDS011;368;48.698;9.116;2023-04-03T05:02:04;4.53;;;4.13;;
769;SDS011;368;48.698;9.116;2023-04-03T05:04:31;5.23;;;3.93;;
769;SDS011;368;48.698;9.116;2023-04-03T05:06:58;4.43;;;3.47;;
769;SDS011;368;48.698;9.116;2023-04-03T05:09:25;4.67;;;3.67;;
769;SDS011;368;48.698;9.116;2023-04-03T05:11:52;5.77;;;3.47;;
769;SDS011;368;48.698;9.116;2023-04-03T05:14:19;3.57;;;3.13;;
769;SDS011;368;48.698;9.116;2023-04-03T05:16:48;5.07;;;4.00;;
769;SDS011;368;48.698;9.116;2023-04-03T05:19:17;3.93;;;3.60;;
769;SDS011;368;48.698;9.116;2023-04-03T05:21:44;3.60;;;3.30;;
769;SDS011;368;48.698;9.116;2023-04-03T05:24:11;3.90;;;3.60;;
769;SDS011;368;48.698;9.116;2023-04-03T05:26:38;4.17;;;3.20;;
769;SDS011;368;48.698;9.116;2023-04-03T05:29:05;3.10;;;2.90;;
769;SDS011;368;48.698;9.116;2023-04-03T05:31:32;5.00;;;3.60;;
769;SDS011;368;48.698;9.116;2023-04-03T05:34:00;7.07;;;3.27;;
769;SDS011;368;48.698;9.116;2023-04-03T05:36:28;4.60;;;3.20;;
769;SDS011;368;48.698;9.116;2023-04-03T05:38:55;4.00;;;3.43;;
769;SDS011;368;48.698;9.116;2023-04-03T05:41:22;4.67;;;4.27;;
769;SDS011;368;48.698;9.116;2023-04-03T05:43:49;5.43;;;2.87;;
769;SDS011;368;48.698;9.116;2023-04-03T05:46:17;3.73;;;3.43;;
769;SDS011;368;48.698;9.116;2023-04-03T05:48:45;3.43;;;3.13;;
769;SDS011;368;48.698;9.116;2023-04-03T05:51:15;3.70;;;3.33;;
769;SDS011;368;48.698;9.116;2023-04-03T05:53:43;3.83;;;3.43;;
769;SDS011;368;48.698;9.116;2023-04-03T05:56:10;4.37;;;3.43;;
769;SDS011;368;48.698;9.116;2023-04-03T05:58:37;3.50;;;3.20;;
769;SDS011;368;48.698;9.116;2023-04-03T06:01:04;7.10;;;3.63;;
769;SDS011;368;48.698;9.116;2023-04-03T06:03:31;4.80;;;3.70;;
769;SDS011;368;48.698;9.116;2023-04-03T06:05:58;3.47;;;3.10;;
769;SDS011;368;48.698;9.116;2023-04-03T06:08:27;4.93;;;3.20;;
769;SDS011;368;48.698;9.116;2023-04-03T06:10:53;5.80;;;4.20;;
769;SDS011;368;48.698;9.116;2023-04-03T06:13:21;4.50;;;4.10;;
769;SDS011;368;48.698;9.116;2023-04-03T06:15:48;4.73;;;4.03;;
769;SDS011;368;48.698;9.116;2023-04-03T06:18:15;4.43;;;4.03;;
769;SDS011;368;48.698;9.116;2023-04-03T06:20:42;4.47;;;4.07;;
769;SDS011;368;48.698;9.116;2023-04-03T06:23:09;3.93;;;3.63;;
769;SDS011;368;48.698;9.116;2023-04-03T06:25:38;4.63;;;4.20;;
769;SDS011;368;48.698;9.116;2023-04-03T06:28:05;4.67;;;4.20;;
769;SDS011;368;48.698;9.116;2023-04-03T06:30:34;4.97;;;4.40;;
769;SDS011;368;48.698;9.116;2023-04-03T06:33:01;5.90;;;4.37;;
769;SDS011;368;48.698;9.116;2023-04-03T06:35:28;4.10;;;3.70;;
769;SDS011;368;48.698;9.116;2023-04-03T06:37:55;6.27;;;3.97;;
769;SDS011;368;48.698;9.116;2023-04-03T06:40:22;3.97;;;3.67;;
769;SDS011;368;48.698;9.116;2023-04-03T06:42:52;3.70;;;3.30;;
769;SDS011;368;48.698;9.116;2023-04-03T06:45:20;4.93;;;4.40;;
769;SDS011;368;48.698;9.116;2023-04-03T06:47:46;16.40;;;4.07;;
769;SDS011;368;48.698;9.116;2023-04-03T06:50:13;4.50;;;3.30;;
769;SDS011;368;48.698;9.116;2023-04-03T06:52:41;3.60;;;2.90;;
769;SDS011;368;48.698;9.116;2023-04-03T06:55:08;3.90;;;3.50;;
769;SDS011;368;48.698;9.116;2023-04-03T06:57:35;5.20;;;3.03;;
769;SDS011;368;48.698;9.116;2023-04-03T07:00:04;4.20;;;3.80;;
769;SDS011;368;48.698;9.116;2023-04-03T07:02:34;3.90;;;3.50;;
769;SDS011;368;48.698;9.116;2023-04-03T07:05:01;3.87;;;3.30;;
769;SDS011;368;48.698;9.116;2023-04-03T07:07:28;4.67;;;4.27;;
769;SDS011;368;48.698;9.116;2023-04-03T07:09:55;4.60;;;3.13;;
769;SDS011;368;48.698;9.116;2023-04-03T07:12:22;3.80;;;3.50;;
769;SDS011;368;48.698;9.116;2023-04-03T07:14:49;3.20;;;3.00;;
769;SDS011;368;48.698;9.116;2023-04-03T07:17:17;4.30;;;3.90;;
769;SDS011;368;48.698;9.116;2023-04-03T07:19:44;4.17;;;3.63;;
769;SDS011;368;48.698;9.116;2023-04-03T07:22:11;4.33;;;3.67;;
769;SDS011;368;48.698;9.116;2023-04-03T07:24:38;3.87;;;3.40;;
769;SDS011;368;48.698;9.116;2023-04-03T07:27:04;3.53;;;3.20;;
769;SDS011;368;48.698;9.116;2023-04-03T07:29:33;4.73;;;3.73;;
769;SDS011;368;48.698;9.116;2023-04-03T07:32:00;3.63;;;3.33;;
769;SDS011;368;48.698;9.116;2023-04-03T07:34:28;4.67;;;4.20;;
769;SDS011;368;48.698;9.116;2023-04-03T07:36:55;3.57;;;3.27;;
769;SDS011;368;48.698;9.116;2023-04-03T07:39:22;2.90;;;2.70;;
769;SDS011;368;48.698;9.116;2023-04-03T07:41:49;4.47;;;4.07;;
769;SDS011;368;48.698;9.116;2023-04-03T07:44:16;4.97;;;3.30;;
769;SDS011;368;48.698;9.116;2023-04-03T07:46:43;5.17;;;3.40;;
769;SDS011;368;48.698;9.116;2023-04-03T07:49:10;5.33;;;4.17;;
769;SDS011;368;48.698;9.116;2023-04-03T07:51:38;3.03;;;2.80;;
769;SDS011;368;48.698;9.116;2023-04-03T07:54:05;5.40;;;3.20;;
769;SDS011;368;48.698;9.116;2023-04-03T07:56:32;4.50;;;4.10;;
769;SDS011;368;48.698;9.116;2023-04-03T07:58:59;5.27;;;3.50;;
769;SDS011;368;48.698;9.116;2023-04-03T08:01:26;5.30;;;2.90;;
769;SDS011;368;48.698;9.116;2023-04-03T08:03:53;3.67;;;3.37;;
769;SDS011;368;48.698;9.116;2023-04-03T08:06:19;3.70;;;3.10;;
769;SDS011;368;48.698;9.116;2023-04-03T08:08:48;5.13;;;3.20;;
769;SDS011;368;48.698;9.116;2023-04-03T08:11:15;2.90;;;2.60;;
769;SDS011;368;48.698;9.116;2023-04-03T08:13:43;3.50;;;3.07;;
769;SDS011;368;48.698;9.116;2023-04-03T08:16:11;7.80;;;3.23;;
769;SDS011;368;48.698;9.116;2023-04-03T08:18:42;4.90;;;3.50;;
769;SDS011;368;48.698;9.116;2023-04-03T08:21:09;3.47;;;3.17;;
769;SDS011;368;48.698;9.116;2023-04-03T08:23:38;3.33;;;2.97;;
769;SDS011;368;48.698;9.116;2023-04-03T08:26:08;4.20;;;3.27;;
769;SDS011;368;48.698;9.116;2023-04-03T08:28:38;3.37;;;3.17;;
769;SDS011;368;48.698;9.116;2023-04-03T08:31:06;3.83;;;3.10;;
769;SDS011;368;48.698;9.116;2023-04-03T08:33:35;3.43;;;3.10;;
769;SDS011;368;48.698;9.116;2023-04-03T08:36:03;4.80;;;3.43;;
769;SDS011;368;48.698;9.116;2023-04-03T08:38:32;4.87;;;3.47;;
769;SDS011;368;48.698;9.116;2023-04-03T08:41:05;7.23;;;3.60;;
769;SDS011;368;48.698;9.116;2023-04-03T08:43:42;5.37;;;3.63;;
769;SDS011;368;48.698;9.116;2023-04-03T08:46:20;3.63;;;2.70;;
769;SDS011;368;48.698;9.116;2023-04-03T08:48:51;4.70;;;3.93;;
769;SDS011;368;48.698;9.116;2023-04-03T08:51:19;4.87;;;3.50;;
769;SDS011;368;48.698;9.116;2023-04-03T08:53:50;4.17;;;3.40;;
769;SDS011;368;48.698;9.116;2023-04-03T08:56:24;4.07;;;3.70;;
769;SDS011;368;48.698;9.116;2023-04-03T08:58:52;5.27;;;3.73;;
769;SDS011;368;48.698;9.116;2023-04-03T09:01:23;3.50;;;3.10;;
769;SDS011;368;48.698;9.116;2023-04-03T09:03:55;3.30;;;2.97;;
769;SDS011;368;48.698;9.116;2023-04-03T09:06:23;5.27;;;3.20;;
769;SDS011;368;48.698;9.116;2023-04-03T09:09:00;4.03;;;3.20;;
769;SDS011;368;48.698;9.116;2023-04-03T09:11:39;3.70;;;3.23;;
769;SDS011;368;48.698;9.116;2023-04-03T09:14:14;3.10;;;2.90;;
769;SDS011;368;48.698;9.116;2023-04-03T09:16:47;3.37;;;3.17;;
769;SDS011;368;48.698;9.116;2023-04-03T09:19:19;3.90;;;3.17;;
769;SDS011;368;48.698;9.116;2023-04-03T09:21:48;4.93;;;3.30;;
769;SDS011;368;48.698;9.116;2023-04-03T09:24:15;3.60;;;3.30;;
769;SDS011;368;48.698;9.116;2023-04-03T09:26:48;3.30;;;3.00;;
769;SDS011;368;48.698;9.116;2023-04-03T09:29:21;6.13;;;5.17;;
769;SDS011;368;48.698;9.116;2023-04-03T09:31:50;4.40;;;3.63;;
769;SDS011;368;48.698;9.116;2023-04-03T09:34:23;4.60;;;3.23;;
769;SDS011;368;48.698;9.116;2023-04-03T09:36:54;3.10;;;2.77;;
769;SDS011;368;48.698;9.116;2023-04-03T09:39:22;4.80;;;2.90;;
769;SDS011;368;48.698;9.116;2023-04-03T09:41:56;4.70;;;4.30;;
769;SDS011;368;48.698;9.116;2023-04-03T09:44:26;3.63;;;3.10;;
769;SDS011;368;48.698;9.116;2023-04-03T09:46:54;3.70;;;2.90;;
769;SDS011;368;48.698;9.116;2023-04-03T09:49:23;6.20;;;3.60;;
769;SDS011;368;48.698;9.116;2023-04-03T09:51:50;4.23;;;2.90;;
769;SDS011;368;48.698;9.116;2023-04-03T09:54:32;4.27;;;3.87;;
769;SDS011;368;48.698;9.116;2023-04-03T09:57:06;4.93;;;3.17;;
769;SDS011;368;48.698;9.116;2023-04-03T09:59:43;4.43;;;3.20;;
769;SDS011;368;48.698;9.116;2023-04-03T10:02:20;11.80;;;8.27;;
769;SDS011;368;48.698;9.116;2023-04-03T10:08:10;4.70;;;2.73;;
769;SDS011;368;48.698;9.116;2023-04-03T10:10:47;5.80;;;5.13;;
769;SDS011;368;48.698;9.116;2023-04-03T10:13:32;4.70;;;3.17;;
769;SDS011;368;48.698;9.116;2023-04-03T10:16:00;5.20;;;4.73;;
769;SDS011;368;48.698;9.116;2023-04-03T10:18:34;4.10;;;3.40;;
769;SDS011;368;48.698;9.116;2023-04-03T10:21:10;3.40;;;3.10;;
769;SDS011;368;48.698;9.116;2023-04-03T10:23:46;3.70;;;2.97;;
769;SDS011;368;48.698;9.116;2023-04-03T10:26:22;4.20;;;3.50;;
769;SDS011;368;48.698;9.116;2023-04-03T10:29:01;3.70;;;3.07;;
769;SDS011;368;48.698;9.116;2023-04-03T10:31:34;3.63;;;3.07;;
769;SDS011;368;48.698;9.116;2023-04-03T10:34:10;3.97;;;3.03;;
769;SDS011;368;48.698;9.116;2023-04-03T10:36:46;6.10;;;4.90;;
769;SDS011;368;48.698;9.116;2023-04-03T10:39:20;3.50;;;2.47;;
769;SDS011;368;48.698;9.116;2023-04-03T10:41:57;3.40;;;2.40;;
769;SDS011;368;48.698;9.116;2023-04-03T10:44:35;3.47;;;3.00;;
769;SDS011;368;48.698;9.116;2023-04-03T10:47:10;2.57;;;2.30;;
769;SDS011;368;48.698;9.116;2023-04-03T10:49:43;2.60;;;2.40;;
769;SDS011;368;48.698;9.116;2023-04-03T10:52:18;3.63;;;2.67;;
769;SDS011;368;48.698;9.116;2023-04-03T10:54:49;2.60;;;2.40;;
769;SDS011;368;48.698;9.116;2023-04-03T10:57:27;5.00;;;2.93;;
769;SDS011;368;48.698;9.116;2023-04-03T10:59:58;4.10;;;2.50;;
769;SDS011;368;48.698;9.116;2023-04-03T11:02:28;2.27;;;2.07;;
769;SDS011;368;48.698;9.116;2023-04-03T11:04:59;2.97;;;2.50;;
769;SDS011;368;48.698;9.116;2023-04-03T11:07:32;3.13;;;2.53;;
769;SDS011;368;48.698;9.116;2023-04-03T11:10:03;3.47;;;3.00;;
769;SDS011;368;48.698;9.116;2023-04-03T11:12:41;3.60;;;2.73;;
769;SDS011;368;48.698;9.116;2023-04-03T11:15:13;4.47;;;2.87;;
769;SDS011;368;48.698;9.116;2023-04-03T11:17:43;3.00;;;2.70;;
769;SDS011;368;48.698;9.116;2023-04-03T11:20:17;3.33;;;2.80;;
769;SDS011;368;48.698;9.116;2023-04-03T11:22:47;2.87;;;2.47;;
769;SDS011;368;48.698;9.116;2023-04-03T11:25:19;2.90;;;2.60;;
769;SDS011;368;48.698;9.116;2023-04-03T11:27:49;2.93;;;2.50;;
769;SDS011;368;48.698;9.116;2023-04-03T11:30:23;4.43;;;3.10;;
769;SDS011;368;48.698;9.116;2023-04-03T11:35:59;5.30;;;3.00;;
769;SDS011;368;48.698;9.116;2023-04-03T11:38:31;6.00;;;3.10;;
769;SDS011;368;48.698;9.116;2023-04-03T11:41:01;3.83;;;2.93;;
769;SDS011;368;48.698;9.116;2023-04-03T11:43:32;4.80;;;3.37;;
769;SDS011;368;48.698;9.116;2023-04-03T11:46:01;2.97;;;2.67;;
769;SDS011;368;48.698;9.116;2023-04-03T11:48:49;4.63;;;2.47;;
769;SDS011;368;48.698;9.116;2023-04-03T12:09:25;2.53;;;2.10;;
769;SDS011;368;48.698;9.116;2023-04-03T12:11:54;3.10;;;1.90;;
769;SDS011;368;48.698;9.116;2023-04-03T12:14:23;3.93;;;2.10;;
769;SDS011;368;48.698;9.116;2023-04-03T12:16:52;2.30;;;2.10;;
769;SDS011;368;48.698;9.116;2023-04-03T12:19:34;3.57;;;2.23;;
769;SDS011;368;48.698;9.116;2023-04-03T12:22:13;3.60;;;2.30;;
769;SDS011;368;48.698;9.116;2023-04-03T12:24:42;3.97;;;2.60;;
769;SDS011;368;48.698;9.116;2023-04-03T12:27:23;4.43;;;2.30;;
769;SDS011;368;48.698;9.116;2023-04-03T12:30:05;3.20;;;2.73;;
769;SDS011;368;48.698;9.116;2023-04-03T12:32:48;4.70;;;2.57;;
769;SDS011;368;48.698;9.116;2023-04-03T12:35:39;3.83;;;3.43;;
769;SDS011;368;48.698;9.116;2023-04-03T12:38:22;5.63;;;3.03;;
769;SDS011;368;48.698;9.116;2023-04-03T12:46:48;4.53;;;2.70;;
769;SDS011;368;48.698;9.116;2023-04-03T12:49:24;4.33;;;3.00;;
769;SDS011;368;48.698;9.116;2023-04-03T12:51:59;2.97;;;2.77;;
769;SDS011;368;48.698;9.116;2023-04-03T12:54:30;3.03;;;2.10;;
769;SDS011;368;48.698;9.116;2023-04-03T12:57:10;3.93;;;2.60;;
769;SDS011;368;48.698;9.116;2023-04-03T12:59:37;3.40;;;2.37;;
769;SDS011;368;48.698;9.116;2023-04-03T13:02:10;4.50;;;2.10;;
769;SDS011;368;48.698;9.116;2023-04-03T13:04:48;2.50;;;2.30;;
769;SDS011;368;48.698;9.116;2023-04-03T13:07:19;2.20;;;2.10;;
769;SDS011;368;48.698;9.116;2023-04-03T13:10:02;3.20;;;2.20;;
769;SDS011;368;48.698;9.116;2023-04-03T13:12:50;2.30;;;2.10;;
769;SDS011;368;48.698;9.116;2023-04-03T13:15:24;3.33;;;2.73;;
769;SDS011;368;48.698;9.116;2023-04-03T13:17:53;2.67;;;2.10;;
769;SDS011;368;48.698;9.116;2023-04-03T13:20:23;3.40;;;3.10;;
769;SDS011;368;48.698;9.116;2023-04-03T13:22:53;2.63;;;2.33;;
769;SDS011;368;48.698;9.116;2023-04-03T13:25:26;3.17;;;2.67;;
769;SDS011;368;48.698;9.116;2023-04-03T13:27:55;4.00;;;2.40;;
769;SDS011;368;48.698;9.116;2023-04-03T13:30:26;3.57;;;2.37;;
769;SDS011;368;48.698;9.116;2023-04-03T13:32:55;2.30;;;2.10;;
769;SDS011;368;48.698;9.116;2023-04-03T13:35:31;5.50;;;2.90;;
769;SDS011;368;48.698;9.116;2023-04-03T13:38:02;3.23;;;2.70;;
769;SDS011;368;48.698;9.116;2023-04-03T13:40:35;2.50;;;2.30;;
769;SDS011;368;48.698;9.116;2023-04-03T13:43:17;3.03;;;2.47;;
769;SDS011;368;48.698;9.116;2023-04-03T13:46:00;2.70;;;2.43;;
769;SDS011;368;48.698;9.116;2023-04-03T13:48:34;3.70;;;2.57;;
769;SDS011;368;48.698;9.116;2023-04-03T13:51:05;3.27;;;2.70;;
769;SDS011;368;48.698;9.116;2023-04-03T13:53:43;3.17;;;2.33;;
769;SDS011;368;48.698;9.116;2023-04-03T13:56:18;3.60;;;2.77;;
769;SDS011;368;48.698;9.116;2023-04-03T13:58:55;3.03;;;2.63;;
769;SDS011;368;48.698;9.116;2023-04-03T14:01:25;3.87;;;2.53;;
769;SDS011;368;48.698;9.116;2023-04-03T14:03:59;2.93;;;2.60;;
769;SDS011;368;48.698;9.116;2023-04-03T14:06:27;5.43;;;3.10;;
769;SDS011;368;48.698;9.116;2023-04-03T14:08:54;3.97;;;3.00;;
769;SDS011;368;48.698;9.116;2023-04-03T14:11:24;2.90;;;2.70;;
769;SDS011;368;48.698;9.116;2023-04-03T14:14:02;3.20;;;2.30;;
769;SDS011;368;48.698;9.116;2023-04-03T14:16:37;4.07;;;2.70;;
769;SDS011;368;48.698;9.116;2023-04-03T14:19:07;2.50;;;2.30;;
769;SDS011;368;48.698;9.116;2023-04-03T14:21:40;4.10;;;3.37;;
769;SDS011;368;48.698;9.116;2023-04-03T14:24:07;2.83;;;2.10;;
769;SDS011;368;48.698;9.116;2023-04-03T14:26:35;3.60;;;2.30;;
769;SDS011;368;48.698;9.116;2023-04-03T14:29:02;4.70;;;2.90;;
769;SDS011;368;48.698;9.116;2023-04-03T14:31:29;2.87;;;2.20;;
769;SDS011;368;48.698;9.116;2023-04-03T14:33:56;3.77;;;3.27;;
769;SDS011;368;48.698;9.116;2023-04-03T14:36:23;3.17;;;2.80;;
769;SDS011;368;48.698;9.116;2023-04-03T14:38:52;3.10;;;2.80;;
769;SDS011;368;48.698;9.116;2023-04-03T14:41:21;2.90;;;2.50;;
769;SDS011;368;48.698;9.116;2023-04-03T14:43:51;3.57;;;3.00;;
769;SDS011;368;48.698;9.116;2023-04-03T14:46:19;4.77;;;3.10;;
769;SDS011;368;48.698;9.116;2023-04-03T14:48:50;3.23;;;2.33;;
769;SDS011;368;48.698;9.116;2023-04-03T14:51:16;3.63;;;2.40;;
769;SDS011;368;48.698;9.116;2023-04-03T14:53:43;3.60;;;2.50;;
769;SDS011;368;48.698;9.116;2023-04-03T14:56:11;4.10;;;2.57;;
769;SDS011;368;48.698;9.116;2023-04-03T14:58:39;4.00;;;2.90;;
769;SDS011;368;48.698;9.116;2023-04-03T15:01:08;4.10;;;2.97;;
769;SDS011;368;48.698;9.116;2023-04-03T15:03:36;7.80;;;3.50;;
769;SDS011;368;48.698;9.116;2023-04-03T15:06:03;2.67;;;2.27;;
769;SDS011;368;48.698;9.116;2023-04-03T15:08:30;4.87;;;2.27;;
769;SDS011;368;48.698;9.116;2023-04-03T15:10:57;3.73;;;2.50;;
769;SDS011;368;48.698;9.116;2023-04-03T15:13:26;3.23;;;2.90;;
769;SDS011;368;48.698;9.116;2023-04-03T15:15:52;3.67;;;2.50;;
769;SDS011;368;48.698;9.116;2023-04-03T15:18:21;4.37;;;2.80;;
769;SDS011;368;48.698;9.116;2023-04-03T15:20:51;3.13;;;2.80;;
769;SDS011;368;48.698;9.116;2023-04-03T15:23:18;4.30;;;3.17;;
769;SDS011;368;48.698;9.116;2023-04-03T15:25:46;4.40;;;2.80;;
769;SDS011;368;48.698;9.116;2023-04-03T15:28:17;3.17;;;2.53;;
769;SDS011;368;48.698;9.116;2023-04-03T15:30:49;5.93;;;3.43;;
769;SDS011;368;48.698;9.116;2023-04-03T15:33:17;4.60;;;2.77;;
769;SDS011;368;48.698;9.116;2023-04-03T15:35:45;6.37;;;3.10;;
769;SDS011;368;48.698;9.116;2023-04-03T15:38:12;3.17;;;2.80;;
769;SDS011;368;48.698;9.116;2023-04-03T15:40:39;5.30;;;3.10;;
769;SDS011;368;48.698;9.116;2023-04-03T15:43:07;4.23;;;2.80;;
769;SDS011;368;48.698;9.116;2023-04-03T15:45:34;2.70;;;2.50;;
769;SDS011;368;48.698;9.116;2023-04-03T15:48:03;6.10;;;3.20;;
769;SDS011;368;48.698;9.116;2023-04-03T15:50:31;2.33;;;2.13;;
769;SDS011;368;48.698;9.116;2023-04-03T15:53:01;2.83;;;2.60;;
769;SDS011;368;48.698;9.116;2023-04-03T15:55:29;3.50;;;2.53;;
769;SDS011;368;48.698;9.116;2023-04-03T15:57:56;8.10;;;3.80;;
769;SDS011;368;48.698;9.116;2023-04-03T16:00:24;3.90;;;2.70;;
769;SDS011;368;48.698;9.116;2023-04-03T16:02:52;5.30;;;3.33;;
769;SDS011;368;48.698;9.116;2023-04-03T16:05:22;3.03;;;2.40;;
769;SDS011;368;48.698;9.116;2023-04-03T16:07:49;3.53;;;2.43;;
769;SDS011;368;48.698;9.116;2023-04-03T16:10:18;4.37;;;2.47;;
769;SDS011;368;48.698;9.116;2023-04-03T16:12:45;6.00;;;3.00;;
769;SDS011;368;48.698;9.116;2023-04-03T16:15:12;3.50;;;3.10;;
769;SDS011;368;48.698;9.116;2023-04-03T16:17:39;4.20;;;2.37;;
769;SDS011;368;48.698;9.116;2023-04-03T16:20:07;3.40;;;2.80;;
769;SDS011;368;48.698;9.116;2023-04-03T16:22:35;5.57;;;3.50;;
769;SDS011;368;48.698;9.116;2023-04-03T16:25:03;2.93;;;2.60;;
769;SDS011;368;48.698;9.116;2023-04-03T16:27:32;3.43;;;2.80;;
769;SDS011;368;48.698;9.116;2023-04-03T16:29:59;2.67;;;2.47;;
769;SDS011;368;48.698;9.116;2023-04-03T16:32:26;2.93;;;2.63;;